createdAt,value
2018-05-08T00:00:32.397Z,19.30
2018-05-08T00:01:09.604Z,19.30
2018-05-08T00:01:47.586Z,19.40
2018-05-08T00:02:25.677Z,19.30
2018-05-08T00:03:03.009Z,19.40
2018-05-08T00:03:40.273Z,19.30
2018-05-08T00:04:17.586Z,19.30
2018-05-08T00:04:54.962Z,19.40
2018-05-08T00:05:32.153Z,19.30
2018-05-08T00:06:09.458Z,19.30
2018-05-08T00:06:46.713Z,19.30
2018-05-08T00:07:23.900Z,19.30
2018-05-08T00:08:01.174Z,19.30
2018-05-08T00:08:39.240Z,19.30
2018-05-08T00:09:17.328Z,19.30
2018-05-08T00:09:55.562Z,19.30
2018-05-08T00:10:32.974Z,19.30
2018-05-08T00:11:11.706Z,19.30
2018-05-08T00:11:49.175Z,19.30
2018-05-08T00:12:26.655Z,19.30
2018-05-08T00:13:03.910Z,19.30
2018-05-08T00:13:41.307Z,19.30
2018-05-08T00:14:18.646Z,19.30
2018-05-08T00:14:56.130Z,19.30
2018-05-08T00:15:34.162Z,19.30
2018-05-08T00:16:12.357Z,19.30
2018-05-08T00:16:50.345Z,19.30
2018-05-08T00:17:27.731Z,19.30
2018-05-08T00:18:05.854Z,19.20
2018-05-08T00:18:43.191Z,19.20
2018-05-08T00:19:20.705Z,19.20
2018-05-08T00:19:58.126Z,19.20
2018-05-08T00:20:35.601Z,19.20
2018-05-08T00:21:12.896Z,19.20
2018-05-08T00:21:50.248Z,19.20
2018-05-08T00:22:27.702Z,19.20
2018-05-08T00:23:05.135Z,19.20
2018-05-08T00:23:43.346Z,19.20
2018-05-08T00:24:20.722Z,19.20
2018-05-08T00:24:58.758Z,19.20
2018-05-08T00:25:36.890Z,19.20
2018-05-08T00:26:15.101Z,19.30
2018-05-08T00:26:53.201Z,19.30
2018-05-08T00:27:30.450Z,19.20
2018-05-08T00:28:08.666Z,19.30
2018-05-08T00:28:46.842Z,19.30
2018-05-08T00:29:24.216Z,19.30
2018-05-08T00:30:02.230Z,19.20
2018-05-08T00:30:39.551Z,19.20
2018-05-08T00:31:17.837Z,19.20
2018-05-08T00:31:55.155Z,19.20
2018-05-08T00:32:33.277Z,19.10
2018-05-08T00:33:10.599Z,19.10
2018-05-08T00:33:47.930Z,19.20
2018-05-08T00:34:26.019Z,19.10
2018-05-08T00:35:03.396Z,19.10
2018-05-08T00:35:41.588Z,19.10
2018-05-08T00:36:18.835Z,19.00
2018-05-08T00:36:56.266Z,19.00
2018-05-08T00:37:33.478Z,19.10
2018-05-08T00:38:10.969Z,19.00
2018-05-08T00:38:49.078Z,19.00
2018-05-08T00:39:26.402Z,19.00
2018-05-08T00:40:03.707Z,19.00
2018-05-08T00:40:41.090Z,19.00
2018-05-08T00:41:18.631Z,19.00
2018-05-08T00:41:56.992Z,19.00
2018-05-08T00:42:34.295Z,19.00
2018-05-08T00:43:12.360Z,19.10
2018-05-08T00:43:49.717Z,19.10
2018-05-08T00:44:27.939Z,19.10
2018-05-08T00:45:05.191Z,19.00
2018-05-08T00:45:42.413Z,19.10
2018-05-08T00:46:20.460Z,19.10
2018-05-08T00:46:57.871Z,19.10
2018-05-08T00:47:35.976Z,19.10
2018-05-08T00:48:14.235Z,19.10
2018-05-08T00:48:51.620Z,19.10
2018-05-08T00:49:29.811Z,19.00
2018-05-08T00:50:07.115Z,19.00
2018-05-08T00:50:44.358Z,19.00
2018-05-08T00:51:21.501Z,19.00
2018-05-08T00:51:58.800Z,19.00
2018-05-08T00:52:36.025Z,19.00
2018-05-08T00:53:13.458Z,19.00
2018-05-08T00:53:51.543Z,19.00
2018-05-08T00:54:28.717Z,19.00
2018-05-08T00:55:06.814Z,19.00
2018-05-08T00:55:44.164Z,19.00
2018-05-08T00:56:22.278Z,19.00
2018-05-08T00:56:59.603Z,19.00
2018-05-08T00:57:37.851Z,19.00
2018-05-08T00:58:16.038Z,18.90
2018-05-08T00:58:53.349Z,18.90
2018-05-08T00:59:30.689Z,18.90
2018-05-08T01:00:08.817Z,18.90
2018-05-08T01:00:46.173Z,18.90
2018-05-08T01:01:23.613Z,18.90
2018-05-08T01:02:01.119Z,18.90
2018-05-08T01:02:38.473Z,18.90
2018-05-08T01:03:15.942Z,18.90
2018-05-08T01:03:53.381Z,18.90
2018-05-08T01:04:30.695Z,19.00
2018-05-08T01:05:08.762Z,18.90
2018-05-08T01:05:45.996Z,18.90
2018-05-08T01:06:23.325Z,18.90
2018-05-08T01:07:01.556Z,18.90
2018-05-08T01:07:39.759Z,18.90
2018-05-08T01:08:17.013Z,18.90
2018-05-08T01:08:54.313Z,18.90
2018-05-08T01:09:31.642Z,18.90
2018-05-08T01:10:09.683Z,18.90
2018-05-08T01:10:46.935Z,18.90
2018-05-08T01:11:25.142Z,18.90
2018-05-08T01:12:03.344Z,18.80
2018-05-08T01:12:40.702Z,18.80
2018-05-08T01:13:17.949Z,18.80
2018-05-08T01:13:56.248Z,18.90
2018-05-08T01:14:34.282Z,18.90
2018-05-08T01:15:11.543Z,18.90
2018-05-08T01:15:49.010Z,18.90
2018-05-08T01:16:26.401Z,18.90
2018-05-08T01:17:04.517Z,18.90
2018-05-08T01:17:42.705Z,18.90
2018-05-08T01:18:20.799Z,18.90
2018-05-08T01:18:58.059Z,18.80
2018-05-08T01:19:35.354Z,18.80
2018-05-08T01:20:13.562Z,18.80
2018-05-08T01:20:50.860Z,18.80
2018-05-08T01:21:28.394Z,18.80
2018-05-08T01:22:05.638Z,18.90
2018-05-08T01:22:43.014Z,18.90
2018-05-08T01:23:21.892Z,18.80
2018-05-08T01:24:00.063Z,18.90
2018-05-08T01:24:38.253Z,18.90
2018-05-08T01:25:15.495Z,18.90
2018-05-08T01:25:52.907Z,18.90
2018-05-08T01:26:30.988Z,18.90
2018-05-08T01:27:08.286Z,18.90
2018-05-08T01:27:45.427Z,18.90
2018-05-08T01:28:22.811Z,18.90
2018-05-08T01:29:00.116Z,18.90
2018-05-08T01:29:38.090Z,18.90
2018-05-08T01:30:15.416Z,18.90
2018-05-08T01:30:53.447Z,18.80
2018-05-08T01:31:30.797Z,18.80
2018-05-08T01:32:08.102Z,18.80
2018-05-08T01:32:45.317Z,18.80
2018-05-08T01:33:22.714Z,18.80
2018-05-08T01:34:00.728Z,18.80
2018-05-08T01:34:38.110Z,18.80
2018-05-08T01:35:16.222Z,18.80
2018-05-08T01:35:54.275Z,18.80
2018-05-08T01:36:32.374Z,18.80
2018-05-08T01:37:09.567Z,18.80
2018-05-08T01:37:46.760Z,18.80
2018-05-08T01:38:25.120Z,18.80
2018-05-08T01:39:02.478Z,18.70
2018-05-08T01:39:39.820Z,18.80
2018-05-08T01:40:17.124Z,18.80
2018-05-08T01:40:54.535Z,18.80
2018-05-08T01:41:32.647Z,18.80
2018-05-08T01:42:10.146Z,18.80
2018-05-08T01:42:47.405Z,18.80
2018-05-08T01:43:25.563Z,18.70
2018-05-08T01:44:03.683Z,18.80
2018-05-08T01:44:41.803Z,18.70
2018-05-08T01:45:19.278Z,18.70
2018-05-08T01:45:56.696Z,18.70
2018-05-08T01:46:34.084Z,18.70
2018-05-08T01:47:11.543Z,18.70
2018-05-08T01:47:48.914Z,18.70
2018-05-08T01:48:26.308Z,18.70
2018-05-08T01:49:03.520Z,18.60
2018-05-08T01:49:40.761Z,18.70
2018-05-08T01:50:17.931Z,18.70
2018-05-08T01:50:56.149Z,18.70
2018-05-08T01:51:33.418Z,18.60
2018-05-08T01:52:11.550Z,18.60
2018-05-08T01:52:48.875Z,18.60
2018-05-08T01:53:26.323Z,18.60
2018-05-08T01:54:04.454Z,18.50
2018-05-08T01:54:42.659Z,18.50
2018-05-08T01:55:20.750Z,18.60
2018-05-08T01:55:58.774Z,18.50
2018-05-08T01:56:36.123Z,18.50
2018-05-08T01:57:13.557Z,18.50
2018-05-08T01:57:50.958Z,18.50
2018-05-08T01:58:28.968Z,18.60
2018-05-08T01:59:06.466Z,18.50
2018-05-08T01:59:43.693Z,18.50
2018-05-08T02:00:21.799Z,18.50
2018-05-08T02:01:00.007Z,18.50
2018-05-08T02:01:37.363Z,18.50
2018-05-08T02:02:14.782Z,18.50
2018-05-08T02:02:52.061Z,18.50
2018-05-08T02:03:30.133Z,18.50
2018-05-08T02:04:08.217Z,18.50
2018-05-08T02:04:45.525Z,18.50
2018-05-08T02:05:23.882Z,18.60
2018-05-08T02:06:01.291Z,18.60
2018-05-08T02:06:39.373Z,18.60
2018-05-08T02:07:16.722Z,18.60
2018-05-08T02:07:54.195Z,18.60
2018-05-08T02:08:31.587Z,18.60
2018-05-08T02:09:09.057Z,18.60
2018-05-08T02:09:46.521Z,18.70
2018-05-08T02:10:24.771Z,18.70
2018-05-08T02:11:02.869Z,18.70
2018-05-08T02:11:40.303Z,18.70
2018-05-08T02:12:18.529Z,18.70
2018-05-08T02:12:55.875Z,18.70
2018-05-08T02:13:33.381Z,18.70
2018-05-08T02:14:10.627Z,18.70
2018-05-08T02:14:47.884Z,18.70
2018-05-08T02:15:25.377Z,18.70
2018-05-08T02:16:02.769Z,18.60
2018-05-08T02:16:40.022Z,18.70
2018-05-08T02:17:18.271Z,18.70
2018-05-08T02:17:55.549Z,18.70
2018-05-08T02:18:33.607Z,18.70
2018-05-08T02:19:11.064Z,18.70
2018-05-08T02:19:48.387Z,18.70
2018-05-08T02:20:25.882Z,18.70
2018-05-08T02:21:04.155Z,18.70
2018-05-08T02:21:41.482Z,18.70
2018-05-08T02:22:19.696Z,18.70
2018-05-08T02:22:57.831Z,18.70
2018-05-08T02:23:35.884Z,18.70
2018-05-08T02:24:13.083Z,18.70
2018-05-08T02:24:51.166Z,18.70
2018-05-08T02:25:28.478Z,18.70
2018-05-08T02:26:05.950Z,18.70
2018-05-08T02:26:44.222Z,18.70
2018-05-08T02:27:22.328Z,18.70
2018-05-08T02:27:59.589Z,18.70
2018-05-08T02:28:37.792Z,18.70
2018-05-08T02:29:15.907Z,18.70
2018-05-08T02:29:53.270Z,18.60
2018-05-08T02:30:31.359Z,18.70
2018-05-08T02:31:08.702Z,18.70
2018-05-08T02:31:46.118Z,18.70
2018-05-08T02:32:24.085Z,18.70
2018-05-08T02:33:01.429Z,18.70
2018-05-08T02:33:39.659Z,18.70
2018-05-08T02:34:16.963Z,18.80
2018-05-08T02:34:55.033Z,18.70
2018-05-08T02:35:33.343Z,18.70
2018-05-08T02:36:10.687Z,18.70
2018-05-08T02:36:47.995Z,18.70
2018-05-08T02:37:25.366Z,18.70
2018-05-08T02:38:03.470Z,18.70
2018-05-08T02:38:40.947Z,18.60
2018-05-08T02:39:18.371Z,18.70
2018-05-08T02:39:55.830Z,18.60
2018-05-08T02:40:33.350Z,18.60
2018-05-08T02:41:11.457Z,18.60
2018-05-08T02:41:48.745Z,18.60
2018-05-08T02:42:25.999Z,18.60
2018-05-08T02:43:03.443Z,18.60
2018-05-08T02:43:40.634Z,18.50
2018-05-08T02:44:18.544Z,18.50
2018-05-08T02:44:56.008Z,18.50
2018-05-08T02:45:34.228Z,18.50
2018-05-08T02:46:12.353Z,18.50
2018-05-08T02:46:49.768Z,18.50
2018-05-08T02:47:27.892Z,18.50
2018-05-08T02:48:05.226Z,18.50
2018-05-08T02:48:42.830Z,18.50
2018-05-08T02:49:20.068Z,18.50
2018-05-08T02:49:57.570Z,18.50
2018-05-08T02:50:34.926Z,18.50
2018-05-08T02:51:12.097Z,18.60
2018-05-08T02:51:49.313Z,18.60
2018-05-08T02:52:26.549Z,18.60
2018-05-08T02:53:03.997Z,18.60
2018-05-08T02:53:42.055Z,18.50
2018-05-08T02:54:19.282Z,18.50
2018-05-08T02:54:56.657Z,18.50
2018-05-08T02:55:34.135Z,18.50
2018-05-08T02:56:11.643Z,18.50
2018-05-08T02:56:49.120Z,18.40
2018-05-08T02:57:26.404Z,18.40
2018-05-08T02:58:03.774Z,18.40
2018-05-08T02:58:41.896Z,18.40
2018-05-08T02:59:19.379Z,18.40
2018-05-08T02:59:56.693Z,18.50
2018-05-08T03:00:34.761Z,18.50
2018-05-08T03:01:12.829Z,18.50
2018-05-08T03:01:50.083Z,18.50
2018-05-08T03:02:27.475Z,18.50
2018-05-08T03:03:04.678Z,18.60
2018-05-08T03:03:41.896Z,18.60
2018-05-08T03:04:19.202Z,18.60
2018-05-08T03:04:57.189Z,18.50
2018-05-08T03:05:34.615Z,18.50
2018-05-08T03:06:11.890Z,18.50
2018-05-08T03:06:49.956Z,18.60
2018-05-08T03:07:27.494Z,18.50
2018-05-08T03:08:04.950Z,18.50
2018-05-08T03:08:42.399Z,18.50
2018-05-08T03:09:19.702Z,18.50
2018-05-08T03:09:57.178Z,18.50
2018-05-08T03:10:35.438Z,18.50
2018-05-08T03:11:13.617Z,18.50
2018-05-08T03:11:50.970Z,18.50
2018-05-08T03:12:28.396Z,18.50
2018-05-08T03:13:05.619Z,18.50
2018-05-08T03:13:43.096Z,18.40
2018-05-08T03:14:20.501Z,18.40
2018-05-08T03:14:58.466Z,18.40
2018-05-08T03:15:35.886Z,18.40
2018-05-08T03:16:13.220Z,18.50
2018-05-08T03:16:50.591Z,18.50
2018-05-08T03:17:27.923Z,18.50
2018-05-08T03:18:05.386Z,18.50
2018-05-08T03:18:43.562Z,18.50
2018-05-08T03:19:20.877Z,18.40
2018-05-08T03:19:58.323Z,18.50
2018-05-08T03:20:36.303Z,18.40
2018-05-08T03:21:14.506Z,18.50
2018-05-08T03:21:52.599Z,18.50
2018-05-08T03:22:29.820Z,18.50
2018-05-08T03:23:07.098Z,18.40
2018-05-08T03:23:44.400Z,18.50
2018-05-08T03:24:21.841Z,18.50
2018-05-08T03:24:59.994Z,18.40
2018-05-08T03:25:38.104Z,18.50
2018-05-08T03:26:15.329Z,18.50
2018-05-08T03:26:53.575Z,18.50
2018-05-08T03:27:31.747Z,18.60
2018-05-08T03:28:09.083Z,18.60
2018-05-08T03:28:46.374Z,18.60
2018-05-08T03:29:24.607Z,18.60
2018-05-08T03:30:01.873Z,18.60
2018-05-08T03:30:40.183Z,18.70
2018-05-08T03:31:18.273Z,18.70
2018-05-08T03:31:55.783Z,18.70
2018-05-08T03:32:33.290Z,18.70
2018-05-08T03:33:10.765Z,18.60
2018-05-08T03:33:48.159Z,18.60
2018-05-08T03:34:25.546Z,18.70
2018-05-08T03:35:02.982Z,18.60
2018-05-08T03:35:40.280Z,18.70
2018-05-08T03:36:18.489Z,18.70
2018-05-08T03:36:55.720Z,18.70
2018-05-08T03:37:33.146Z,18.70
2018-05-08T03:38:10.474Z,18.60
2018-05-08T03:38:47.753Z,18.60
2018-05-08T03:39:25.763Z,18.70
2018-05-08T03:40:03.851Z,18.60
2018-05-08T03:40:41.982Z,18.70
2018-05-08T03:41:19.351Z,18.60
2018-05-08T03:41:56.585Z,18.70
2018-05-08T03:42:33.956Z,18.70
2018-05-08T03:43:11.177Z,18.80
2018-05-08T03:43:48.622Z,18.80
2018-05-08T03:44:26.790Z,18.70
2018-05-08T03:45:04.091Z,18.70
2018-05-08T03:45:41.443Z,18.70
2018-05-08T03:46:19.480Z,18.70
2018-05-08T03:46:56.830Z,18.70
2018-05-08T03:47:34.078Z,18.70
2018-05-08T03:48:12.223Z,18.70
2018-05-08T03:48:50.454Z,18.80
2018-05-08T03:49:27.648Z,18.70
2018-05-08T03:50:04.931Z,18.70
2018-05-08T03:50:43.180Z,18.70
2018-05-08T03:51:20.724Z,18.70
2018-05-08T03:51:58.050Z,18.70
2018-05-08T03:52:35.489Z,18.70
2018-05-08T03:53:12.957Z,18.70
2018-05-08T03:53:50.303Z,18.70
2018-05-08T03:54:27.728Z,18.80
2018-05-08T03:55:05.818Z,18.80
2018-05-08T03:55:43.285Z,18.80
2018-05-08T03:56:21.393Z,18.80
2018-05-08T03:56:58.667Z,18.70
2018-05-08T03:57:35.901Z,18.80
2018-05-08T03:58:13.134Z,18.70
2018-05-08T03:58:51.248Z,18.60
2018-05-08T03:59:28.596Z,18.60
2018-05-08T04:00:06.702Z,18.60
2018-05-08T04:00:44.107Z,18.60
2018-05-08T04:01:21.639Z,18.60
2018-05-08T04:01:58.978Z,18.60
2018-05-08T04:02:36.500Z,18.70
2018-05-08T04:03:14.590Z,18.70
2018-05-08T04:03:51.940Z,18.70
2018-05-08T04:04:29.200Z,18.70
2018-05-08T04:05:06.623Z,18.80
2018-05-08T04:05:43.901Z,18.80
2018-05-08T04:06:21.185Z,18.80
2018-05-08T04:06:58.430Z,18.80
2018-05-08T04:07:36.552Z,18.90
2018-05-08T04:08:13.794Z,18.90
2018-05-08T04:08:52.009Z,18.90
2018-05-08T04:09:29.515Z,18.90
2018-05-08T04:10:07.718Z,18.90
2018-05-08T04:10:44.951Z,18.90
2018-05-08T04:11:22.942Z,18.90
2018-05-08T04:12:00.262Z,18.90
2018-05-08T04:12:38.521Z,18.90
2018-05-08T04:13:15.771Z,18.90
2018-05-08T04:13:53.170Z,18.90
2018-05-08T04:14:31.259Z,18.90
2018-05-08T04:15:08.555Z,18.90
2018-05-08T04:15:46.255Z,18.90
2018-05-08T04:16:23.471Z,18.90
2018-05-08T04:17:01.562Z,18.90
2018-05-08T04:17:39.670Z,18.80
2018-05-08T04:18:17.830Z,18.80
2018-05-08T04:18:55.153Z,18.80
2018-05-08T04:19:33.328Z,18.80
2018-05-08T04:20:11.681Z,18.80
2018-05-08T04:20:49.033Z,18.70
2018-05-08T04:21:26.372Z,18.70
2018-05-08T04:22:03.763Z,18.80
2018-05-08T04:22:41.209Z,18.80
2018-05-08T04:23:18.653Z,18.80
2018-05-08T04:23:55.887Z,18.80
2018-05-08T04:24:33.986Z,18.80
2018-05-08T04:25:11.241Z,18.80
2018-05-08T04:25:49.665Z,18.70
2018-05-08T04:26:27.751Z,18.70
2018-05-08T04:27:05.134Z,18.70
2018-05-08T04:27:43.245Z,18.80
2018-05-08T04:28:20.579Z,18.80
2018-05-08T04:28:58.104Z,18.80
2018-05-08T04:29:36.163Z,18.90
2018-05-08T04:30:14.378Z,18.90
2018-05-08T04:30:52.087Z,18.90
2018-05-08T04:31:29.302Z,18.90
2018-05-08T04:32:06.766Z,18.90
2018-05-08T04:32:44.157Z,19.00
2018-05-08T04:33:21.569Z,19.00
2018-05-08T04:33:59.841Z,19.00
2018-05-08T04:34:37.042Z,19.00
2018-05-08T04:35:14.521Z,19.10
2018-05-08T04:35:51.865Z,19.10
2018-05-08T04:36:29.231Z,19.10
2018-05-08T04:37:06.754Z,19.10
2018-05-08T04:37:43.980Z,19.10
2018-05-08T04:38:21.428Z,19.10
2018-05-08T04:38:59.765Z,19.10
2018-05-08T04:39:37.973Z,19.10
2018-05-08T04:40:16.261Z,19.10
2018-05-08T04:40:53.688Z,19.10
2018-05-08T04:41:31.797Z,19.10
2018-05-08T04:42:09.099Z,19.10
2018-05-08T04:42:47.323Z,19.10
2018-05-08T04:43:25.407Z,19.10
2018-05-08T04:44:02.691Z,19.10
2018-05-08T04:44:40.110Z,19.10
2018-05-08T04:45:18.138Z,19.10
2018-05-08T04:45:55.536Z,19.10
2018-05-08T04:46:33.623Z,19.10
2018-05-08T04:47:11.829Z,19.10
2018-05-08T04:47:49.923Z,19.10
2018-05-08T04:48:27.242Z,19.10
2018-05-08T04:49:04.622Z,19.10
2018-05-08T04:49:41.867Z,19.10
2018-05-08T04:50:19.121Z,19.10
2018-05-08T04:50:57.207Z,19.00
2018-05-08T04:51:34.567Z,19.00
2018-05-08T04:52:12.681Z,19.00
2018-05-08T04:52:49.978Z,19.00
2018-05-08T04:53:27.307Z,19.00
2018-05-08T04:54:05.519Z,19.00
2018-05-08T04:54:42.875Z,19.00
2018-05-08T04:55:20.898Z,19.00
2018-05-08T04:55:58.138Z,19.00
2018-05-08T04:56:35.677Z,19.00
2018-05-08T04:57:13.835Z,19.00
2018-05-08T04:57:52.034Z,19.00
2018-05-08T04:58:29.282Z,19.00
2018-05-08T04:59:06.738Z,19.00
2018-05-08T04:59:44.106Z,19.00
2018-05-08T05:00:21.403Z,19.00
2018-05-08T05:00:58.881Z,19.00
2018-05-08T05:01:36.341Z,18.90
2018-05-08T05:02:13.630Z,18.90
2018-05-08T05:02:51.657Z,18.80
2018-05-08T05:03:28.993Z,18.90
2018-05-08T05:04:06.311Z,18.90
2018-05-08T05:04:44.426Z,18.90
2018-05-08T05:05:21.630Z,18.90
2018-05-08T05:05:59.046Z,18.90
2018-05-08T05:06:37.193Z,18.90
2018-05-08T05:07:14.615Z,18.90
2018-05-08T05:07:52.816Z,18.90
2018-05-08T05:08:30.244Z,18.90
2018-05-08T05:09:07.690Z,18.80
2018-05-08T05:09:45.051Z,18.80
2018-05-08T05:10:23.255Z,18.80
2018-05-08T05:11:00.682Z,18.80
2018-05-08T05:11:38.194Z,18.80
2018-05-08T05:12:15.434Z,18.80
2018-05-08T05:12:53.576Z,18.70
2018-05-08T05:13:30.909Z,18.70
2018-05-08T05:14:08.418Z,18.70
2018-05-08T05:14:46.609Z,18.80
2018-05-08T05:15:24.032Z,18.70
2018-05-08T05:16:01.363Z,18.70
2018-05-08T05:16:38.999Z,18.80
2018-05-08T05:17:16.443Z,18.70
2018-05-08T05:17:54.626Z,18.80
2018-05-08T05:18:32.826Z,18.70
2018-05-08T05:19:10.926Z,18.60
2018-05-08T05:19:48.355Z,18.60
2018-05-08T05:20:26.398Z,18.70
2018-05-08T05:21:03.727Z,18.60
2018-05-08T05:21:41.147Z,18.70
2018-05-08T05:22:19.259Z,18.60
2018-05-08T05:22:56.558Z,18.70
2018-05-08T05:23:34.607Z,18.60
2018-05-08T05:24:11.955Z,18.60
2018-05-08T05:24:50.190Z,18.60
2018-05-08T05:25:27.543Z,18.60
2018-05-08T05:26:05.746Z,18.70
2018-05-08T05:26:43.046Z,18.70
2018-05-08T05:27:21.128Z,18.70
2018-05-08T05:27:58.463Z,18.70
2018-05-08T05:28:36.699Z,18.70
2018-05-08T05:29:14.050Z,18.60
2018-05-08T05:29:52.164Z,18.60
2018-05-08T05:30:29.518Z,18.60
2018-05-08T05:31:06.885Z,18.60
2018-05-08T05:31:44.949Z,18.60
2018-05-08T05:32:23.206Z,18.60
2018-05-08T05:33:00.483Z,18.60
2018-05-08T05:33:37.833Z,18.60
2018-05-08T05:34:16.133Z,18.50
2018-05-08T05:34:53.525Z,18.50
2018-05-08T05:35:30.965Z,18.60
2018-05-08T05:36:08.444Z,18.50
2018-05-08T05:36:45.850Z,18.50
2018-05-08T05:37:23.954Z,18.50
2018-05-08T05:38:01.192Z,18.50
2018-05-08T05:38:38.607Z,18.50
2018-05-08T05:39:16.713Z,18.50
2018-05-08T05:39:54.906Z,18.50
2018-05-08T05:40:32.130Z,18.50
2018-05-08T05:41:09.515Z,18.50
2018-05-08T05:41:46.909Z,18.50
2018-05-08T05:42:24.140Z,18.50
2018-05-08T05:43:01.509Z,18.50
2018-05-08T05:43:39.774Z,18.50
2018-05-08T05:44:17.978Z,18.50
2018-05-08T05:44:55.126Z,18.50
2018-05-08T05:45:32.581Z,18.60
2018-05-08T05:46:10.803Z,18.60
2018-05-08T05:46:48.894Z,18.60
2018-05-08T05:47:26.150Z,18.60
2018-05-08T05:48:04.390Z,18.60
2018-05-08T05:48:41.678Z,18.60
2018-05-08T05:49:19.655Z,18.60
2018-05-08T05:49:56.885Z,18.60
2018-05-08T05:50:35.127Z,18.60
2018-05-08T05:51:12.366Z,18.60
2018-05-08T05:51:50.481Z,18.60
2018-05-08T05:52:27.801Z,18.60
2018-05-08T05:53:06.089Z,18.60
2018-05-08T05:53:43.343Z,18.60
2018-05-08T05:54:21.415Z,18.60
2018-05-08T05:54:58.754Z,18.60
2018-05-08T05:55:36.053Z,18.60
2018-05-08T05:56:14.299Z,18.70
2018-05-08T05:56:52.451Z,18.60
2018-05-08T05:57:29.841Z,18.60
2018-05-08T05:58:07.106Z,18.60
2018-05-08T05:58:44.758Z,18.60
2018-05-08T05:59:22.155Z,18.60
2018-05-08T05:59:59.497Z,18.60
2018-05-08T06:00:37.002Z,18.60
2018-05-08T06:01:15.038Z,18.50
2018-05-08T06:01:52.473Z,18.50
2018-05-08T06:02:29.887Z,18.50
2018-05-08T06:03:07.977Z,18.60
2018-05-08T06:03:46.060Z,18.60
2018-05-08T06:04:24.046Z,18.60
2018-05-08T06:05:01.380Z,18.60
2018-05-08T06:05:38.757Z,18.60
2018-05-08T06:06:16.158Z,18.60
2018-05-08T06:06:53.589Z,18.60
2018-05-08T06:07:31.747Z,18.60
2018-05-08T06:08:09.828Z,18.60
2018-05-08T06:08:47.134Z,18.60
2018-05-08T06:09:24.415Z,18.70
2018-05-08T06:10:01.587Z,18.70
2018-05-08T06:10:38.854Z,18.70
2018-05-08T06:11:16.937Z,18.60
2018-05-08T06:11:54.316Z,18.60
2018-05-08T06:12:32.597Z,18.70
2018-05-08T06:13:09.973Z,18.70
2018-05-08T06:13:47.454Z,18.70
2018-05-08T06:14:25.549Z,18.60
2018-05-08T06:15:03.174Z,18.60
2018-05-08T06:15:40.495Z,18.60
2018-05-08T06:16:17.910Z,18.70
2018-05-08T06:16:55.264Z,18.70
2018-05-08T06:17:33.354Z,18.60
2018-05-08T06:18:11.547Z,18.60
2018-05-08T06:18:48.927Z,18.60
2018-05-08T06:19:26.393Z,18.60
2018-05-08T06:20:03.882Z,18.60
2018-05-08T06:20:41.286Z,18.60
2018-05-08T06:21:18.499Z,18.70
2018-05-08T06:21:56.607Z,18.60
2018-05-08T06:22:33.973Z,18.60
2018-05-08T06:23:11.191Z,18.60
2018-05-08T06:23:48.607Z,18.60
2018-05-08T06:24:26.857Z,18.60
2018-05-08T06:25:04.844Z,18.60
2018-05-08T06:25:42.191Z,18.60
2018-05-08T06:26:19.364Z,18.60
2018-05-08T06:26:56.822Z,18.60
2018-05-08T06:27:34.142Z,18.70
2018-05-08T06:28:12.347Z,18.70
2018-05-08T06:28:49.664Z,18.70
2018-05-08T06:29:27.911Z,18.70
2018-05-08T06:30:06.007Z,18.70
2018-05-08T06:30:43.484Z,18.60
2018-05-08T06:31:20.754Z,18.70
2018-05-08T06:31:58.219Z,18.70
2018-05-08T06:32:36.218Z,18.70
2018-05-08T06:33:14.433Z,18.60
2018-05-08T06:33:51.650Z,18.60
2018-05-08T06:34:29.900Z,18.70
2018-05-08T06:35:07.985Z,18.70
2018-05-08T06:35:45.963Z,18.70
2018-05-08T06:36:23.326Z,18.70
2018-05-08T06:37:00.796Z,18.70
2018-05-08T06:37:39.034Z,18.50
2018-05-08T06:38:16.255Z,18.50
2018-05-08T06:38:54.580Z,18.50
2018-05-08T06:39:32.858Z,18.50
2018-05-08T06:40:10.429Z,18.50
2018-05-08T06:40:48.667Z,18.60
2018-05-08T06:41:26.764Z,18.70
2018-05-08T06:42:04.865Z,18.70
2018-05-08T06:42:42.228Z,18.60
2018-05-08T06:43:19.651Z,18.60
2018-05-08T06:43:56.814Z,18.60
2018-05-08T06:44:34.872Z,18.60
2018-05-08T06:45:13.082Z,18.60
2018-05-08T06:45:50.419Z,18.60
2018-05-08T06:46:28.451Z,18.60
2018-05-08T06:47:05.903Z,18.60
2018-05-08T06:47:43.254Z,18.70
2018-05-08T06:48:20.552Z,18.70
2018-05-08T06:48:58.034Z,18.60
2018-05-08T06:49:35.381Z,18.70
2018-05-08T06:50:12.791Z,18.70
2018-05-08T06:50:50.318Z,18.70
2018-05-08T06:51:27.652Z,18.70
2018-05-08T06:52:05.654Z,18.70
2018-05-08T06:52:42.910Z,18.70
2018-05-08T06:53:20.299Z,18.70
2018-05-08T06:53:57.552Z,18.60
2018-05-08T06:54:35.035Z,18.70
2018-05-08T06:55:13.228Z,18.70
2018-05-08T06:55:51.341Z,18.70
2018-05-08T06:56:28.806Z,18.70
2018-05-08T06:57:06.817Z,18.70
2018-05-08T06:57:44.904Z,18.70
2018-05-08T06:58:22.332Z,18.70
2018-05-08T06:59:00.474Z,18.70
2018-05-08T06:59:37.781Z,18.70
2018-05-08T07:00:15.000Z,18.80
2018-05-08T07:00:52.481Z,18.70
2018-05-08T07:01:29.964Z,18.70
2018-05-08T07:02:07.314Z,18.70
2018-05-08T07:02:45.353Z,18.70
2018-05-08T07:03:23.543Z,18.60
2018-05-08T07:04:00.719Z,18.60
2018-05-08T07:04:38.007Z,18.70
2018-05-08T07:05:16.177Z,18.70
2018-05-08T07:05:53.633Z,18.70
2018-05-08T07:06:31.097Z,18.70
2018-05-08T07:07:08.419Z,18.70
2018-05-08T07:07:46.517Z,18.70
2018-05-08T07:08:23.864Z,18.70
2018-05-08T07:09:02.093Z,18.70
2018-05-08T07:09:39.577Z,18.70
2018-05-08T07:10:17.757Z,18.70
2018-05-08T07:10:55.943Z,18.60
2018-05-08T07:11:33.150Z,18.60
2018-05-08T07:12:10.460Z,18.60
2018-05-08T07:12:48.500Z,18.50
2018-05-08T07:13:25.849Z,18.50
2018-05-08T07:14:03.048Z,18.50
2018-05-08T07:14:40.298Z,18.50
2018-05-08T07:15:18.506Z,18.50
2018-05-08T07:15:56.719Z,18.50
2018-05-08T07:16:34.205Z,18.50
2018-05-08T07:17:12.571Z,18.50
2018-05-08T07:17:50.222Z,18.50
2018-05-08T07:18:27.598Z,18.60
2018-05-08T07:19:05.056Z,18.60
2018-05-08T07:19:42.401Z,18.60
2018-05-08T07:20:19.699Z,18.60
2018-05-08T07:20:57.214Z,18.70
2018-05-08T07:21:34.596Z,18.70
2018-05-08T07:22:12.041Z,18.80
2018-05-08T07:22:50.117Z,18.80
2018-05-08T07:23:27.439Z,18.70
2018-05-08T07:24:04.769Z,18.70
2018-05-08T07:24:42.342Z,18.70
2018-05-08T07:25:20.442Z,18.70
2018-05-08T07:25:58.638Z,18.70
2018-05-08T07:26:36.136Z,18.70
2018-05-08T07:27:13.664Z,18.70
2018-05-08T07:27:51.664Z,18.80
2018-05-08T07:28:29.023Z,18.80
2018-05-08T07:29:07.044Z,18.80
2018-05-08T07:29:44.339Z,18.80
2018-05-08T07:30:21.664Z,18.80
2018-05-08T07:30:59.075Z,18.80
2018-05-08T07:31:36.555Z,18.80
2018-05-08T07:32:13.901Z,18.70
2018-05-08T07:32:51.215Z,18.80
2018-05-08T07:33:29.292Z,18.80
2018-05-08T07:34:06.634Z,18.80
2018-05-08T07:34:43.942Z,18.80
2018-05-08T07:35:21.115Z,18.80
2018-05-08T07:35:59.259Z,18.80
2018-05-08T07:36:36.535Z,18.80
2018-05-08T07:37:13.734Z,18.80
2018-05-08T07:37:51.073Z,18.70
2018-05-08T07:38:28.275Z,18.80
2018-05-08T07:39:05.696Z,18.80
2018-05-08T07:39:43.244Z,18.80
2018-05-08T07:40:20.594Z,18.90
2018-05-08T07:40:58.096Z,18.90
2018-05-08T07:41:36.237Z,19.00
2018-05-08T07:42:13.635Z,19.00
2018-05-08T07:42:51.767Z,19.10
2018-05-08T07:43:29.219Z,19.10
2018-05-08T07:44:07.454Z,19.20
2018-05-08T07:44:45.550Z,19.20
2018-05-08T07:45:23.940Z,19.20
2018-05-08T07:46:02.261Z,19.20
2018-05-08T07:46:39.530Z,19.20
2018-05-08T07:47:17.616Z,19.10
2018-05-08T07:47:55.822Z,19.10
2018-05-08T07:48:33.177Z,19.00
2018-05-08T07:49:11.422Z,19.10
2018-05-08T07:49:48.755Z,19.10
2018-05-08T07:50:26.932Z,19.10
2018-05-08T07:51:04.346Z,19.10
2018-05-08T07:51:42.344Z,19.10
2018-05-08T07:52:19.804Z,19.10
2018-05-08T07:52:57.785Z,19.20
2018-05-08T07:53:35.166Z,19.20
2018-05-08T07:54:12.399Z,19.20
2018-05-08T07:54:49.788Z,19.10
2018-05-08T07:55:27.923Z,19.10
2018-05-08T07:56:06.000Z,19.00
2018-05-08T07:56:43.326Z,19.00
2018-05-08T07:57:21.553Z,19.00
2018-05-08T07:57:59.873Z,19.10
2018-05-08T07:58:37.198Z,19.10
2018-05-08T07:59:14.673Z,19.20
2018-05-08T07:59:52.187Z,19.20
2018-05-08T08:00:29.542Z,19.20
2018-05-08T08:01:06.930Z,19.30
2018-05-08T08:01:45.180Z,19.30
2018-05-08T08:02:22.485Z,19.30
2018-05-08T08:03:00.633Z,19.40
2018-05-08T08:03:37.990Z,19.40
2018-05-08T08:04:15.562Z,19.40
2018-05-08T08:04:53.773Z,19.50